Chem Orion — V7GZ9 — position and weather

sailwx.info

Track history (hours):
 
Tides and Currents Weather Stations Pressure Air Temp Water Temp Dewpoint Dewpoint Depression Visibility Wind Speed Wind Dir Waves Ship Positions

Chem Orion

Last reported at 2014-Nov-21 23:31 UTC. Time now 2014-Nov-22 00:19 UTC.
Position N 51°53' E 004°21'.

Length 125 m; draft 4.7 m.

Type: Ship (hazmat cat D). MMSI: 538002197.

Date/timePositionNaut miles runAvg speedWind from/ knotsBaromVisibWave heightAir tempDewpointWater temp
2014-Nov-21 23:31N 51°53' E 004°21'2 2.4
2014-Nov-21 22:33N 51°54' E 004°17'9 8.7
2014-Nov-21 21:33N 51°59' E 004°05'9 8.5
2014-Nov-21 20:33N 51°60' E 003°52'2 2.1
2014-Nov-21 19:34N 51°59' E 003°48'3 3.2
2014-Nov-21 18:33N 51°59' E 003°43'7 7.1
2014-Nov-21 17:33N 51°56' E 003°33'7 6.8
2014-Nov-21 16:33N 51°54' E 003°22'8 7.0
2014-Nov-21 15:27N 51°52' E 003°10'6 6.6
2014-Nov-21 14:31N 51°50' E 003°01'59 7.4
2014-Nov-21 06:32N 52°49' E 003°11'2311.0
2014-Nov-21 04:25N 53°11' E 003°24'71 9.9
2014-Nov-20 21:16N 54°04' E 004°44'1110.6
2014-Nov-20 20:12N 54°13' E 004°54'28510.5
2014-Nov-19 17:10N 57°49' E 010°26'913.1
2014-Nov-19 16:31N 57°48' E 010°42'1112.0
2014-Nov-19 15:34N 57°41' E 010°59'1212.2
2014-Nov-19 14:33N 57°33' E 011°16'1110.9
2014-Nov-19 13:33N 57°24' E 011°28'85 7.5
2014-Nov-19 02:17N 56°08' E 010°20'  
2014-Nov-16 04:33N 54°31' E 010°24'8 8.4
2014-Nov-16 03:33N 54°25' E 010°13'4 4.2
2014-Nov-16 02:33N 54°22' E 010°08'1 1.1
2014-Nov-16 01:33N 54°22' E 010°07'6 5.6
2014-Nov-16 00:31N 54°20' E 009°57'5 4.9
2014-Nov-15 23:31N 54°22' E 009°49'5 5.0
2014-Nov-15 22:31N 54°18' E 009°43'7 7.1
2014-Nov-15 21:28N 54°13' E 009°35'15 7.6
2014-Nov-15 19:33N 54°02' E 009°18'6 5.7
2014-Nov-15 18:32N 53°57' E 009°13'2 2.3
2014-Nov-15 17:31N 53°55' E 009°11'0 0.0
2014-Nov-15 16:33N 53°55' E 009°11'0 0.0
2014-Nov-15 15:33N 53°55' E 009°11'0 0.0
2014-Nov-15 14:33N 53°55' E 009°11'0 0.2
2014-Nov-15 13:33N 53°55' E 009°11'2 1.7
2014-Nov-15 12:33N 53°54' E 009°08'5 5.2
2014-Nov-15 11:33N 53°52' E 009°00'7 6.8
2014-Nov-15 10:34N 53°50' E 008°49'6 5.7
2014-Nov-15 09:33N 53°54' E 008°41'6 6.2
2014-Nov-15 08:33N 53°58' E 008°33'8 7.7
2014-Nov-15 07:34N 53°59' E 008°21'9 9.2
2014-Nov-15 06:34N 53°60' E 008°05'9 9.2
2014-Nov-15 05:34N 54°04' E 007°51'10 9.6
2014-Nov-15 04:33N 54°09' E 007°37'1010.1
2014-Nov-15 03:33N 54°09' E 007°20'4710.9
2014-Nov-14 23:13N 54°06' E 005°59'710.8
2014-Nov-14 22:33N 54°05' E 005°47'1110.5
2014-Nov-14 21:33N 54°04' E 005°29'1010.3
2014-Nov-14 20:33N 54°03' E 005°12'10 9.9
2014-Nov-14 19:33N 54°01' E 004°55'9410.0
2014-Nov-14 10:11N 52°48' E 003°15'911.2
2014-Nov-14 09:24N 52°41' E 003°08'5811.9
2014-Nov-14 04:30N 51°46' E 002°37'1111.4
2014-Nov-14 03:34N 51°38' E 002°26'1210.9
2014-Nov-14 02:30N 51°29' E 002°13'1010.3
2014-Nov-14 01:34N 51°20' E 002°07'9 9.0
2014-Nov-14 00:33N 51°12' E 002°00'10 9.5
2014-Nov-13 23:33N 51°07' E 001°47'6 6.0
2014-Nov-13 22:34N 51°02' E 001°53'1512.4
2014-Nov-13 21:21N 51°04' E 002°17'3 0.7
2014-Nov-13 17:17N 51°03' E 002°21'0 0.0
2014-Nov-13 16:33N 51°03' E 002°21'0 0.0
2014-Nov-13 13:18N 51°03' E 002°21'0 0.0
2014-Nov-13 12:21N 51°03' E 002°21'0 0.0
2014-Nov-13 11:12N 51°03' E 002°21'0 0.0
2014-Nov-13 10:33N 51°03' E 002°21'0 0.0
2014-Nov-13 08:18N 51°03' E 002°21'0 0.0
2014-Nov-13 07:21N 51°03' E 002°21'0 0.0
2014-Nov-13 06:33N 51°03' E 002°21'0 0.0
2014-Nov-13 05:21N 51°03' E 002°21'0 0.0
2014-Nov-13 04:30N 51°03' E 002°21'0 0.0
2014-Nov-13 02:30N 51°03' E 002°21'0 0.0
2014-Nov-13 01:21N 51°03' E 002°21'0 0.0
2014-Nov-13 00:06N 51°03' E 002°21'0 0.0
2014-Nov-12 23:30N 51°03' E 002°21'0 0.0
2014-Nov-12 22:33N 51°03' E 002°21'0 0.0
2014-Nov-12 21:30N 51°03' E 002°21'0 0.0
2014-Nov-12 20:33N 51°03' E 002°21'0 0.0
2014-Nov-12 19:24N 51°03' E 002°21'0 0.0
2014-Nov-12 18:27N 51°03' E 002°21'0 0.0
2014-Nov-12 17:24N 51°03' E 002°21'0 0.0
2014-Nov-12 16:12N 51°03' E 002°21'0 0.0
2014-Nov-12 15:21N 51°03' E 002°21'0 0.0
2014-Nov-12 14:33N 51°03' E 002°21'0 0.0
2014-Nov-12 13:15N 51°03' E 002°21'0 0.0
2014-Nov-12 12:30N 51°03' E 002°21'0 0.4
2014-Nov-12 11:32N 51°03' E 002°21'8 7.7
2014-Nov-12 10:31N 51°03' E 002°09'9 9.7
2014-Nov-12 09:33N 51°02' E 001°54'9 8.9
2014-Nov-12 08:33N 51°02' E 001°40'1010.5
2014-Nov-12 07:33N 50°55' E 001°28'  
Track history (hours):
 
Tides and Currents Weather Stations Pressure Air Temp Water Temp Dewpoint Dewpoint Depression Visibility Wind Speed Wind Dir Waves Ship Positions

Chem Orion

Last reported at 2014-Nov-21 23:31 UTC. Time now 2014-Nov-22 00:19 UTC.
Position N 51°53' E 004°21'.

Length 125 m; draft 4.7 m.

Type: Ship (hazmat cat D). MMSI: 538002197.

Date/timePositionNaut miles runAvg speedWind from/ knotsBaromVisibWave heightAir tempDewpointWater temp
2014-Nov-21 23:31N 51°53' E 004°21'2 2.4
2014-Nov-21 22:33N 51°54' E 004°17'9 8.7
2014-Nov-21 21:33N 51°59' E 004°05'9 8.5
2014-Nov-21 20:33N 51°60' E 003°52'2 2.1
2014-Nov-21 19:34N 51°59' E 003°48'3 3.2
2014-Nov-21 18:33N 51°59' E 003°43'7 7.1
2014-Nov-21 17:33N 51°56' E 003°33'7 6.8
2014-Nov-21 16:33N 51°54' E 003°22'8 7.0
2014-Nov-21 15:27N 51°52' E 003°10'6 6.6
2014-Nov-21 14:31N 51°50' E 003°01'59 7.4
2014-Nov-21 06:32N 52°49' E 003°11'2311.0
2014-Nov-21 04:25N 53°11' E 003°24'71 9.9
2014-Nov-20 21:16N 54°04' E 004°44'1110.6
2014-Nov-20 20:12N 54°13' E 004°54'28510.5
2014-Nov-19 17:10N 57°49' E 010°26'913.1
2014-Nov-19 16:31N 57°48' E 010°42'1112.0
2014-Nov-19 15:34N 57°41' E 010°59'1212.2
2014-Nov-19 14:33N 57°33' E 011°16'1110.9
2014-Nov-19 13:33N 57°24' E 011°28'85 7.5
2014-Nov-19 02:17N 56°08' E 010°20'  
2014-Nov-16 04:33N 54°31' E 010°24'8 8.4
2014-Nov-16 03:33N 54°25' E 010°13'4 4.2
2014-Nov-16 02:33N 54°22' E 010°08'1 1.1
2014-Nov-16 01:33N 54°22' E 010°07'6 5.6
2014-Nov-16 00:31N 54°20' E 009°57'5 4.9
2014-Nov-15 23:31N 54°22' E 009°49'5 5.0
2014-Nov-15 22:31N 54°18' E 009°43'7 7.1
2014-Nov-15 21:28N 54°13' E 009°35'15 7.6
2014-Nov-15 19:33N 54°02' E 009°18'6 5.7
2014-Nov-15 18:32N 53°57' E 009°13'2 2.3
2014-Nov-15 17:31N 53°55' E 009°11'0 0.0
2014-Nov-15 16:33N 53°55' E 009°11'0 0.0
2014-Nov-15 15:33N 53°55' E 009°11'0 0.0
2014-Nov-15 14:33N 53°55' E 009°11'0 0.2
2014-Nov-15 13:33N 53°55' E 009°11'2 1.7
2014-Nov-15 12:33N 53°54' E 009°08'5 5.2
2014-Nov-15 11:33N 53°52' E 009°00'7 6.8
2014-Nov-15 10:34N 53°50' E 008°49'6 5.7
2014-Nov-15 09:33N 53°54' E 008°41'6 6.2
2014-Nov-15 08:33N 53°58' E 008°33'8 7.7
2014-Nov-15 07:34N 53°59' E 008°21'9 9.2
2014-Nov-15 06:34N 53°60' E 008°05'9 9.2
2014-Nov-15 05:34N 54°04' E 007°51'10 9.6
2014-Nov-15 04:33N 54°09' E 007°37'1010.1
2014-Nov-15 03:33N 54°09' E 007°20'4710.9
2014-Nov-14 23:13N 54°06' E 005°59'710.8
2014-Nov-14 22:33N 54°05' E 005°47'1110.5
2014-Nov-14 21:33N 54°04' E 005°29'1010.3
2014-Nov-14 20:33N 54°03' E 005°12'10 9.9
2014-Nov-14 19:33N 54°01' E 004°55'9410.0
2014-Nov-14 10:11N 52°48' E 003°15'911.2
2014-Nov-14 09:24N 52°41' E 003°08'5811.9
2014-Nov-14 04:30N 51°46' E 002°37'1111.4
2014-Nov-14 03:34N 51°38' E 002°26'1210.9
2014-Nov-14 02:30N 51°29' E 002°13'1010.3
2014-Nov-14 01:34N 51°20' E 002°07'9 9.0
2014-Nov-14 00:33N 51°12' E 002°00'10 9.5
2014-Nov-13 23:33N 51°07' E 001°47'6 6.0
2014-Nov-13 22:34N 51°02' E 001°53'1512.4
2014-Nov-13 21:21N 51°04' E 002°17'3 0.7
2014-Nov-13 17:17N 51°03' E 002°21'0 0.0
2014-Nov-13 16:33N 51°03' E 002°21'0 0.0
2014-Nov-13 13:18N 51°03' E 002°21'0 0.0
2014-Nov-13 12:21N 51°03' E 002°21'0 0.0
2014-Nov-13 11:12N 51°03' E 002°21'0 0.0
2014-Nov-13 10:33N 51°03' E 002°21'0 0.0
2014-Nov-13 08:18N 51°03' E 002°21'0 0.0
2014-Nov-13 07:21N 51°03' E 002°21'0 0.0
2014-Nov-13 06:33N 51°03' E 002°21'0 0.0
2014-Nov-13 05:21N 51°03' E 002°21'0 0.0
2014-Nov-13 04:30N 51°03' E 002°21'0 0.0
2014-Nov-13 02:30N 51°03' E 002°21'0 0.0
2014-Nov-13 01:21N 51°03' E 002°21'0 0.0
2014-Nov-13 00:06N 51°03' E 002°21'0 0.0
2014-Nov-12 23:30N 51°03' E 002°21'0 0.0
2014-Nov-12 22:33N 51°03' E 002°21'0 0.0
2014-Nov-12 21:30N 51°03' E 002°21'0 0.0
2014-Nov-12 20:33N 51°03' E 002°21'0 0.0
2014-Nov-12 19:24N 51°03' E 002°21'0 0.0
2014-Nov-12 18:27N 51°03' E 002°21'0 0.0
2014-Nov-12 17:24N 51°03' E 002°21'0 0.0
2014-Nov-12 16:12N 51°03' E 002°21'0 0.0
2014-Nov-12 15:21N 51°03' E 002°21'0 0.0
2014-Nov-12 14:33N 51°03' E 002°21'0 0.0
2014-Nov-12 13:15N 51°03' E 002°21'0 0.0
2014-Nov-12 12:30N 51°03' E 002°21'0 0.4
2014-Nov-12 11:32N 51°03' E 002°21'8 7.7
2014-Nov-12 10:31N 51°03' E 002°09'9 9.7
2014-Nov-12 09:33N 51°02' E 001°54'9 8.9
2014-Nov-12 08:33N 51°02' E 001°40'1010.5
2014-Nov-12 07:33N 50°55' E 001°28'  

Dump ship's entire track history